Time;durP1;ratioP1;P1;durP2;ratioP2;P2;SDS_P1;SDS_P2;PMS_P1;PMS_P2;Temp;Humidity;BMP_temperature;BMP_pressure;BME280_temperature;BME280_humidity;BME280_pressure;Samples;Min_cycle;Max_cycle;Signal;HPM_P1;HPM_P2
2022/03/23 07:04:48;;;;;;;11.85;9.00;;;;;;;;;;10542357;27;20431;-83
2022/03/23 07:09:49;;;;;;;15.57;12.70;;;;;;;;;;10527640;28;20036;-84
2022/03/23 07:14:56;;;;;;;11.77;9.57;;;;;;;;;;10524646;28;20034;-84
2022/03/23 07:19:57;;;;;;;13.02;10.18;;;;;;;;;;10543287;28;20025;-84
2022/03/23 07:24:58;;;;;;;;;;;;;;;;;;10540405;28;20474;-84
2022/03/23 07:29:59;;;;;;;13.82;10.98;;;;;;;;;;10540480;28;19904;-84
2022/03/23 07:35:01;;;;;;;11.15;9.70;;;;;;;;;;10539131;28;20052;-84
2022/03/23 07:40:03;;;;;;;11.45;9.88;;;;;;;;;;10541850;28;20036;-83
2022/03/23 07:45:05;;;;;;;11.93;10.07;;;;;;;;;;10551545;28;20032;-83
2022/03/23 07:50:07;;;;;;;12.35;10.25;;;;;;;;;;10559126;28;20051;-85
2022/03/23 07:55:09;;;;;;;10.60;9.40;;;;;;;;;;10565985;28;20072;-83
2022/03/23 08:00:10;;;;;;;10.07;8.95;;;;;;;;;;10544402;28;20485;-80
2022/03/23 08:05:11;;;;;;;16.77;12.55;;;;;;;;;;10544114;28;20544;-79
2022/03/23 08:10:12;;;;;;;18.20;13.55;;;;;;;;;;10542553;28;20104;-81
2022/03/23 08:15:14;;;;;;;16.17;12.35;;;;;;;;;;10533016;28;20080;-82
2022/03/23 08:20:33;;;;;;;20.35;15.63;;;;;;;;;;10529569;28;20021;-82
2022/03/23 08:25:37;;;;;;;15.27;13.00;;;;;;;;;;10528965;28;20051;-81
2022/03/23 08:30:39;;;;;;;14.15;11.43;;;;;;;;;;10529933;28;20024;-81
2022/03/23 08:35:40;;;;;;;15.98;13.50;;;;;;;;;;10525082;28;20115;-82
2022/03/23 08:40:41;;;;;;;15.55;12.95;;;;;;;;;;10531451;28;20040;-84
2022/03/23 08:45:42;;;;;;;13.82;10.95;;;;;;;;;;10528778;28;20025;-84
2022/03/23 08:50:43;;;;;;;14.20;11.93;;;;;;;;;;10530627;28;20051;-83
2022/03/23 08:55:44;;;;;;;17.55;13.32;;;;;;;;;;10525859;28;20021;-83
2022/03/23 09:00:45;;;;;;;15.88;13.20;;;;;;;;;;10526859;28;20036;-83
2022/03/23 09:05:46;;;;;;;14.13;12.57;;;;;;;;;;10526278;28;20032;-83
2022/03/23 09:10:47;;;;;;;14.93;11.65;;;;;;;;;;10525202;28;20024;-83
2022/03/23 09:15:48;;;;;;;13.55;11.85;;;;;;;;;;10524666;28;20060;-83
2022/03/23 09:20:50;;;;;;;19.33;16.10;;;;;;;;;;10522433;28;20096;-83
2022/03/23 09:25:52;;;;;;;17.40;13.90;;;;;;;;;;10519745;28;20025;-82
2022/03/23 09:30:53;;;;;;;18.02;14.95;;;;;;;;;;10525603;28;20078;-83
2022/03/23 09:35:54;;;;;;;25.20;18.35;;;;;;;;;;10521743;28;20024;-84
2022/03/23 09:40:56;;;;;;;23.08;18.27;;;;;;;;;;10519642;28;20096;-84
2022/03/23 09:45:57;;;;;;;46.83;41.15;;;;;;;;;;10530408;28;20029;-84
2022/03/23 09:50:58;;;;;;;25.15;20.40;;;;;;;;;;10522029;28;20573;-83
2022/03/23 09:55:59;;;;;;;21.73;18.58;;;;;;;;;;10521186;28;20020;-84
2022/03/23 10:01:01;;;;;;;21.27;17.85;;;;;;;;;;10517366;28;20119;-84
2022/03/23 10:06:21;;;;;;;19.23;15.43;;;;;;;;;;10519757;28;20031;-83
2022/03/23 10:11:24;;;;;;;21.65;16.75;;;;;;;;;;10524253;28;20029;-85
2022/03/23 10:16:47;;;;;;;18.05;14.57;;;;;;;;;;10516035;28;20028;-84
2022/03/23 10:21:49;;;;;;;17.75;15.18;;;;;;;;;;10516689;28;20037;-82
2022/03/23 10:26:50;;;;;;;23.08;18.92;;;;;;;;;;10514740;28;20028;-82
2022/03/23 10:32:21;;;;;;;18.60;16.45;;;;;;;;;;10516762;28;20028;-82
2022/03/23 10:37:39;;;;;;;17.35;14.70;;;;;;;;;;10505841;28;20090;-83
2022/03/23 10:42:42;;;;;;;19.65;15.38;;;;;;;;;;10525560;28;20100;-84
2022/03/23 10:47:46;;;;;;;24.27;16.45;;;;;;;;;;10517822;28;20055;-84
2022/03/23 10:52:54;;;;;;;14.85;13.25;;;;;;;;;;10514374;28;20024;-82
2022/03/23 10:58:01;;;;;;;16.45;14.75;;;;;;;;;;10521313;28;20028;-79
2022/03/23 11:03:03;;;;;;;18.45;14.73;;;;;;;;;;10519511;28;20081;-84
2022/03/23 11:08:08;;;;;;;15.55;13.30;;;;;;;;;;10528410;28;20028;-85
2022/03/23 11:18:30;;;;;;;13.23;10.85;;;;;;;;;;10520195;28;20099;-80
2022/03/23 11:23:38;;;;;;;22.20;18.88;;;;;;;;;;10518927;28;20025;-80
2022/03/23 11:28:45;;;;;;;22.40;19.15;;;;;;;;;;10520738;28;20094;-79
2022/03/23 11:33:50;;;;;;;23.52;19.13;;;;;;;;;;10518319;28;20029;-79
2022/03/23 11:38:52;;;;;;;20.42;16.55;;;;;;;;;;10521340;28;20097;-79
2022/03/23 11:43:53;;;;;;;15.02;13.20;;;;;;;;;;10531267;28;20097;-80
2022/03/23 11:49:13;;;;;;;15.00;12.73;;;;;;;;;;10524299;28;20028;-81
2022/03/23 11:55:37;;;;;;;20.48;17.52;;;;;;;;;;10526340;28;20130;-83
2022/03/23 11:59:52;;;;;;;32.92;25.42;;;;;;;;;;10523901;28;20041;-79
2022/03/23 12:05:14;;;;;;;16.30;13.70;;;;;;;;;;10523424;28;20033;-80
2022/03/23 12:10:20;;;;;;;38.17;31.77;;;;;;;;;;10522596;28;20025;-80
2022/03/23 12:15:30;;;;;;;14.55;12.98;;;;;;;;;;10519828;28;20024;-80
2022/03/23 12:20:40;;;;;;;25.63;20.42;;;;;;;;;;10519885;28;20024;-80
2022/03/23 12:26:00;;;;;;;9.43;8.33;;;;;;;;;;10529412;28;20077;-82
2022/03/23 12:31:01;;;;;;;;;;;;;;;;;;10533826;28;20078;-82
2022/03/23 12:36:04;;;;;;;13.18;10.02;;;;;;;;;;10529018;28;19971;-81
2022/03/23 12:41:08;;;;;;;13.85;11.40;;;;;;;;;;10531018;28;20080;-82
2022/03/23 12:46:22;;;;;;;12.77;9.40;;;;;;;;;;10537080;28;20090;-81
2022/03/23 13:02:19;;;;;;;14.87;12.00;;;;;;;;;;10532794;28;20044;-80
2022/03/23 13:07:29;;;;;;;13.40;12.00;;;;;;;;;;10522536;28;20032;-83
2022/03/23 13:12:31;;;;;;;16.08;14.13;;;;;;;;;;10519892;28;20071;-81
2022/03/23 13:17:32;;;;;;;13.02;11.70;;;;;;;;;;10519567;28;20030;-80
2022/03/23 13:22:34;;;;;;;14.40;12.80;;;;;;;;;;10522199;28;20050;-81
2022/03/23 13:27:37;;;;;;;11.52;10.35;;;;;;;;;;10521009;28;20042;-80
2022/03/23 13:32:46;;;;;;;15.57;13.98;;;;;;;;;;10520259;28;20024;-81
2022/03/23 13:37:55;;;;;;;15.57;11.80;;;;;;;;;;10533633;28;20050;-80
2022/03/23 13:48:21;;;;;;;20.25;14.70;;;;;;;;;;10524154;28;20033;-79
2022/03/23 13:53:23;;;;;;;11.93;10.60;;;;;;;;;;10530451;28;20100;-82
2022/03/23 13:58:27;;;;;;;14.57;12.65;;;;;;;;;;10524226;28;20046;-81
2022/03/23 14:03:32;;;;;;;16.30;13.98;;;;;;;;;;10522978;28;20074;-82
2022/03/23 14:08:37;;;;;;;12.10;10.63;;;;;;;;;;10513907;28;20036;-84
2022/03/23 14:13:38;;;;;;;13.02;11.63;;;;;;;;;;10509673;28;20114;-83
2022/03/23 14:18:39;;;;;;;14.77;12.13;;;;;;;;;;10520618;28;20024;-85
2022/03/23 14:23:40;;;;;;;14.63;10.60;;;;;;;;;;10515708;28;20019;-84
2022/03/23 14:28:48;;;;;;;15.50;12.13;;;;;;;;;;10513620;28;20029;-83
2022/03/23 14:34:02;;;;;;;14.45;11.98;;;;;;;;;;10509672;28;20481;-85
2022/03/23 14:39:15;;;;;;;11.05;9.30;;;;;;;;;;10511405;28;20028;-85
2022/03/23 14:44:34;;;;;;;22.27;17.65;;;;;;;;;;10471622;28;20060;-85
2022/03/23 14:49:36;;;;;;;24.13;20.15;;;;;;;;;;10475928;28;20084;-84
2022/03/23 14:55:04;;;;;;;23.20;19.90;;;;;;;;;;10475678;28;20027;-85
2022/03/23 15:00:07;;;;;;;24.05;18.20;;;;;;;;;;10481041;28;20031;-83
2022/03/23 15:13:15;;;;;;;19.23;17.08;;;;;;;;;;10476067;28;20399;-82
2022/03/23 15:15:49;;;;;;;14.70;12.10;;;;;;;;;;10475791;28;20060;-82
2022/03/23 15:20:50;;;;;;;12.93;10.20;;;;;;;;;;10492052;22;20049;-79
2022/03/23 15:25:51;;;;;;;15.43;13.57;;;;;;;;;;10438316;28;20124;-77
2022/03/23 15:30:52;;;;;;;20.65;14.75;;;;;;;;;;10426034;28;20034;-79
2022/03/23 15:35:53;;;;;;;15.18;11.82;;;;;;;;;;10396269;28;20472;-78
2022/03/23 15:40:54;;;;;;;21.38;15.00;;;;;;;;;;10390873;28;20026;-79
2022/03/23 15:45:58;;;;;;;14.57;12.00;;;;;;;;;;10392863;28;20022;-79
2022/03/23 15:50:59;;;;;;;20.02;16.73;;;;;;;;;;10392661;28;20495;-79
2022/03/23 15:56:00;;;;;;;16.63;13.57;;;;;;;;;;10394770;28;20041;-79
2022/03/23 16:01:02;;;;;;;13.63;11.50;;;;;;;;;;10389458;28;20093;-79
2022/03/23 16:06:03;;;;;;;13.65;12.18;;;;;;;;;;10390047;28;20025;-78
2022/03/23 16:11:04;;;;;;;16.35;13.93;;;;;;;;;;10391239;28;20049;-78
2022/03/23 16:16:06;;;;;;;16.02;12.57;;;;;;;;;;10390680;28;20029;-79
2022/03/23 16:21:07;;;;;;;15.65;13.52;;;;;;;;;;10389903;28;20046;-78
2022/03/23 16:26:08;;;;;;;14.85;12.48;;;;;;;;;;10388050;28;20578;-81
2022/03/23 16:31:12;;;;;;;15.85;13.35;;;;;;;;;;10388149;28;20395;-80
2022/03/23 16:36:15;;;;;;;16.77;14.10;;;;;;;;;;10388705;28;20038;-79
2022/03/23 16:41:34;;;;;;;16.55;13.40;;;;;;;;;;10387534;28;20029;-80
2022/03/23 16:46:36;;;;;;;17.10;13.53;;;;;;;;;;10390379;28;20052;-81
2022/03/23 16:51:39;;;;;;;16.48;12.85;;;;;;;;;;10387530;28;20022;-79
2022/03/23 16:56:43;;;;;;;15.05;13.32;;;;;;;;;;10390877;28;20030;-79
2022/03/23 17:01:44;;;;;;;18.20;13.77;;;;;;;;;;10387992;28;20025;-79
2022/03/23 17:17:25;;;;;;;15.20;12.85;;;;;;;;;;10392775;28;20033;-80
2022/03/23 17:22:27;;;;;;;15.38;13.20;;;;;;;;;;10395610;28;20096;-79
2022/03/23 17:27:28;;;;;;;13.80;12.13;;;;;;;;;;10398042;28;20084;-79
2022/03/23 17:32:30;;;;;;;15.82;13.00;;;;;;;;;;10395351;28;20026;-79
2022/03/23 17:37:31;;;;;;;13.18;11.63;;;;;;;;;;10393675;28;20026;-80
2022/03/23 17:42:35;;;;;;;11.63;10.43;;;;;;;;;;10397369;28;20054;-80
2022/03/23 17:47:41;;;;;;;12.60;11.07;;;;;;;;;;10391036;28;20025;-80
2022/03/23 17:52:42;;;;;;;16.45;14.05;;;;;;;;;;10386718;28;20041;-80
2022/03/23 17:57:43;;;;;;;13.68;11.30;;;;;;;;;;10384146;28;20037;-79
2022/03/23 18:02:44;;;;;;;12.75;10.52;;;;;;;;;;10382961;28;20140;-78
2022/03/23 18:07:45;;;;;;;13.30;11.32;;;;;;;;;;10383539;28;20052;-79
2022/03/23 18:12:47;;;;;;;12.27;10.95;;;;;;;;;;10385647;28;20044;-79
2022/03/23 18:17:48;;;;;;;14.80;12.45;;;;;;;;;;10383640;28;20074;-79
2022/03/23 18:22:50;;;;;;;13.60;10.85;;;;;;;;;;10384149;28;20029;-78
2022/03/23 18:27:51;;;;;;;10.60;9.35;;;;;;;;;;10380956;28;20551;-78
2022/03/23 18:32:52;;;;;;;14.68;11.68;;;;;;;;;;10381995;28;20089;-79
2022/03/23 18:37:53;;;;;;;10.75;9.35;;;;;;;;;;10381471;28;20116;-78
2022/03/23 18:42:55;;;;;;;13.18;10.02;;;;;;;;;;10379923;28;20030;-79
2022/03/23 18:47:56;;;;;;;12.98;10.60;;;;;;;;;;10381599;28;20484;-78
2022/03/23 18:52:57;;;;;;;11.13;9.80;;;;;;;;;;10380360;28;20022;-78
2022/03/23 18:57:58;;;;;;;8.93;7.70;;;;;;;;;;10380874;28;20068;-78
2022/03/23 19:02:59;;;;;;;12.75;10.93;;;;;;;;;;10379458;28;20018;-79
2022/03/23 19:08:00;;;;;;;10.25;8.10;;;;;;;;;;10380681;28;20022;-79
2022/03/23 19:13:01;;;;;;;10.40;8.70;;;;;;;;;;10378578;28;20030;-78
2022/03/23 19:18:03;;;;;;;12.90;11.48;;;;;;;;;;10381445;28;20079;-79
2022/03/23 19:23:04;;;;;;;9.27;8.23;;;;;;;;;;10379139;28;20399;-78
2022/03/23 19:28:05;;;;;;;10.70;8.98;;;;;;;;;;10381116;28;20022;-79
2022/03/23 19:33:06;;;;;;;9.80;8.75;;;;;;;;;;10377534;28;20030;-79
2022/03/23 19:38:21;;;;;;;10.75;8.77;;;;;;;;;;10379335;28;20546;-79
2022/03/23 19:43:22;;;;;;;8.55;7.03;;;;;;;;;;10378548;28;20033;-79
2022/03/23 19:48:23;;;;;;;8.40;7.50;;;;;;;;;;10379317;28;20076;-79
2022/03/23 19:53:25;;;;;;;11.88;9.07;;;;;;;;;;10378546;28;20076;-79
2022/03/23 19:58:26;;;;;;;10.02;8.52;;;;;;;;;;10378022;28;20045;-79
2022/03/23 20:03:28;;;;;;;16.02;12.40;;;;;;;;;;10378710;28;20483;-79
2022/03/23 20:08:29;;;;;;;11.15;9.10;;;;;;;;;;10379301;28;20030;-79
2022/03/23 20:13:30;;;;;;;13.65;9.10;;;;;;;;;;10385059;28;20392;-79
2022/03/23 20:18:31;;;;;;;12.20;9.57;;;;;;;;;;10386206;28;20368;-79
2022/03/23 20:23:32;;;;;;;8.35;7.30;;;;;;;;;;10384679;28;20026;-79
2022/03/23 20:28:34;;;;;;;8.35;6.85;;;;;;;;;;10385002;28;20048;-79
